Phelps, Kentucky
Current Conditions -  °F | °C
As of 7:55 PM on Friday 24 Oct 2014 (Local Time) from KPBX Reporting Station
Clear Clear  
Wind Chill: 55°   Ceiling: Unl
Heat Index: 55°   Visibility: 10mi
Dew Point: 40°   Wind: 0mph
Humidity: 58%   Direction: NA
Pressure: 30.08"   Gusts: NA
Location:  37.51°N, 82.16°W
Report Text: KPBX 242355Z AUTO 00000KT 10SM CLR 13/05 A3008 RMK AO2 T01260045 10146 20102
Loading
Personal Weather Stations






























Interactive Weather Map
Tropical Storm Tracking
New forecast layout! Learn more

10-Day Weather Forecast

Advertisements
Track Severe Weather on mobile